sensor_id;sensor_type;location;lat;lon;timestamp;pressure;altitude;pressure_sealevel;temperature;humidity
51313;BME280;37397;53.226;10.400;2022-12-18T00:02:10;102535.97;;;-2.45;66.61
51313;BME280;37397;53.226;10.400;2022-12-18T00:04:37;102532.59;;;-2.51;67.27
51313;BME280;37397;53.226;10.400;2022-12-18T00:07:03;102553.44;;;-2.48;66.82
51313;BME280;37397;53.226;10.400;2022-12-18T00:09:30;102546.22;;;-2.49;67.15
51313;BME280;37397;53.226;10.400;2022-12-18T00:12:06;102546.56;;;-2.51;67.27
51313;BME280;37397;53.226;10.400;2022-12-18T00:14:41;102554.81;;;-2.54;67.04
51313;BME280;37397;53.226;10.400;2022-12-18T00:17:08;102556.47;;;-2.53;66.88
51313;BME280;37397;53.226;10.400;2022-12-18T00:19:34;102547.28;;;-2.54;67.15
51313;BME280;37397;53.226;10.400;2022-12-18T00:22:01;102556.00;;;-2.55;66.76
51313;BME280;37397;53.226;10.400;2022-12-18T00:24:27;102559.16;;;-2.57;66.76
51313;BME280;37397;53.226;10.400;2022-12-18T00:26:53;102549.94;;;-2.58;66.99
51313;BME280;37397;53.226;10.400;2022-12-18T00:29:20;102543.88;;;-2.60;66.92
51313;BME280;37397;53.226;10.400;2022-12-18T00:31:47;102542.59;;;-2.62;67.11
51313;BME280;37397;53.226;10.400;2022-12-18T00:34:13;102551.81;;;-2.62;66.53
51313;BME280;37397;53.226;10.400;2022-12-18T00:36:40;102554.59;;;-2.62;66.56
51313;BME280;37397;53.226;10.400;2022-12-18T00:39:08;102555.28;;;-2.65;67.04
51313;BME280;37397;53.226;10.400;2022-12-18T00:41:34;102559.72;;;-2.64;66.77
51313;BME280;37397;53.226;10.400;2022-12-18T00:44:20;102560.41;;;-2.67;67.22
51313;BME280;37397;53.226;10.400;2022-12-18T00:46:47;102557.97;;;-2.68;67.27
51313;BME280;37397;53.226;10.400;2022-12-18T00:49:18;102571.09;;;-2.69;66.45
51313;BME280;37397;53.226;10.400;2022-12-18T00:51:46;102579.03;;;-2.71;66.96
51313;BME280;37397;53.226;10.400;2022-12-18T00:54:13;102573.44;;;-2.71;66.78
51313;BME280;37397;53.226;10.400;2022-12-18T00:56:40;102573.44;;;-2.71;66.52
51313;BME280;37397;53.226;10.400;2022-12-18T00:59:15;102563.28;;;-2.76;66.95
51313;BME280;37397;53.226;10.400;2022-12-18T01:01:42;102569.38;;;-2.73;67.34
51313;BME280;37397;53.226;10.400;2022-12-18T01:04:09;102575.31;;;-2.75;66.63
51313;BME280;37397;53.226;10.400;2022-12-18T01:06:36;102572.03;;;-2.77;66.44
51313;BME280;37397;53.226;10.400;2022-12-18T01:09:02;102586.00;;;-2.77;66.85
51313;BME280;37397;53.226;10.400;2022-12-18T01:11:29;102584.72;;;-2.80;67.28
51313;BME280;37397;53.226;10.400;2022-12-18T01:13:55;102589.97;;;-2.78;66.80
51313;BME280;37397;53.226;10.400;2022-12-18T01:16:22;102588.31;;;-2.79;66.73
51313;BME280;37397;53.226;10.400;2022-12-18T01:18:53;102586.69;;;-2.80;66.36
51313;BME280;37397;53.226;10.400;2022-12-18T01:21:21;102585.06;;;-2.81;66.47
51313;BME280;37397;53.226;10.400;2022-12-18T01:23:52;102588.09;;;-2.86;66.86
51313;BME280;37397;53.226;10.400;2022-12-18T01:26:19;102588.09;;;-2.86;66.88
51313;BME280;37397;53.226;10.400;2022-12-18T01:28:45;102584.44;;;-2.87;67.07
51313;BME280;37397;53.226;10.400;2022-12-18T01:31:26;102590.38;;;-2.88;66.98
51313;BME280;37397;53.226;10.400;2022-12-18T01:33:54;102589.91;;;-2.90;66.70
51313;BME280;37397;53.226;10.400;2022-12-18T01:36:27;102585.13;;;-2.90;66.36
51313;BME280;37397;53.226;10.400;2022-12-18T01:38:54;102588.28;;;-2.91;66.40
51313;BME280;37397;53.226;10.400;2022-12-18T01:41:24;102579.09;;;-2.92;66.46
51313;BME280;37397;53.226;10.400;2022-12-18T01:43:56;102577.44;;;-2.93;66.85
51313;BME280;37397;53.226;10.400;2022-12-18T01:46:25;102571.06;;;-2.94;67.04
51313;BME280;37397;53.226;10.400;2022-12-18T01:48:59;102566.66;;;-2.95;66.85
51313;BME280;37397;53.226;10.400;2022-12-18T01:51:29;102554.97;;;-2.97;66.63
51313;BME280;37397;53.226;10.400;2022-12-18T01:53:57;102562.91;;;-2.99;66.55
51313;BME280;37397;53.226;10.400;2022-12-18T01:56:25;102557.31;;;-2.99;67.18
51313;BME280;37397;53.226;10.400;2022-12-18T01:59:00;102562.91;;;-2.99;66.40
51313;BME280;37397;53.226;10.400;2022-12-18T02:01:29;102566.03;;;-3.00;66.72
51313;BME280;37397;53.226;10.400;2022-12-18T02:04:23;102573.09;;;-3.03;66.38
51313;BME280;37397;53.226;10.400;2022-12-18T02:07:20;102586.59;;;-3.05;66.90
51313;BME280;37397;53.226;10.400;2022-12-18T02:10:06;102579.38;;;-3.06;67.09
51313;BME280;37397;53.226;10.400;2022-12-18T02:13:56;102580.44;;;-3.10;66.73
51313;BME280;37397;53.226;10.400;2022-12-18T02:16:03;102589.63;;;-3.10;66.35
51313;BME280;37397;53.226;10.400;2022-12-18T02:18:37;102587.97;;;-3.11;66.61
51313;BME280;37397;53.226;10.400;2022-12-18T02:24:18;102585.88;;;-3.14;66.59
51313;BME280;37397;53.226;10.400;2022-12-18T02:26:54;102584.25;;;-3.15;66.75
51313;BME280;37397;53.226;10.400;2022-12-18T02:29:35;102592.63;;;-3.15;66.36
51313;BME280;37397;53.226;10.400;2022-12-18T02:32:10;102585.28;;;-3.20;66.82
51313;BME280;37397;53.226;10.400;2022-12-18T02:34:41;102576.56;;;-3.18;66.82
51313;BME280;37397;53.226;10.400;2022-12-18T02:37:16;102588.06;;;-3.20;66.33
51313;BME280;37397;53.226;10.400;2022-12-18T02:39:46;102587.28;;;-3.20;66.63
51313;BME280;37397;53.226;10.400;2022-12-18T02:42:16;102588.75;;;-3.23;66.70
51313;BME280;37397;53.226;10.400;2022-12-18T02:44:44;102600.72;;;-3.22;66.90
51313;BME280;37397;53.226;10.400;2022-12-18T02:47:15;102595.16;;;-3.22;66.41
51313;BME280;37397;53.226;10.400;2022-12-18T02:52:45;102608.63;;;-3.24;66.41
51313;BME280;37397;53.226;10.400;2022-12-18T03:00:43;102620.03;;;-3.30;66.76
51313;BME280;37397;53.226;10.400;2022-12-18T03:03:27;102623.16;;;-3.31;66.35
51313;BME280;37397;53.226;10.400;2022-12-18T03:06:18;102603.94;;;-3.33;66.91
51313;BME280;37397;53.226;10.400;2022-12-18T03:08:51;102612.66;;;-3.34;66.94
51313;BME280;37397;53.226;10.400;2022-12-18T03:11:20;102617.44;;;-3.35;66.63
51313;BME280;37397;53.226;10.400;2022-12-18T03:14:11;102613.00;;;-3.36;66.57
51313;BME280;37397;53.226;10.400;2022-12-18T03:16:40;102610.91;;;-3.39;66.52
51313;BME280;37397;53.226;10.400;2022-12-18T03:19:16;102608.56;;;-3.37;66.66
51313;BME280;37397;53.226;10.400;2022-12-18T03:21:51;102601.38;;;-3.38;66.94
51313;BME280;37397;53.226;10.400;2022-12-18T03:24:21;102598.09;;;-3.40;67.13
51313;BME280;37397;53.226;10.400;2022-12-18T03:26:56;102596.47;;;-3.41;67.02
51313;BME280;37397;53.226;10.400;2022-12-18T03:29:34;102596.47;;;-3.41;66.67
51313;BME280;37397;53.226;10.400;2022-12-18T03:32:07;102604.38;;;-3.43;66.42
51313;BME280;37397;53.226;10.400;2022-12-18T03:34:39;102604.38;;;-3.43;66.19
51313;BME280;37397;53.226;10.400;2022-12-18T03:37:11;102596.19;;;-3.48;66.26
51313;BME280;37397;53.226;10.400;2022-12-18T03:39:37;102598.72;;;-3.55;66.59
51313;BME280;37397;53.226;10.400;2022-12-18T03:42:20;102616.22;;;-3.46;66.65
51313;BME280;37397;53.226;10.400;2022-12-18T03:45:20;102615.25;;;-3.50;66.47
51313;BME280;37397;53.226;10.400;2022-12-18T03:48:00;102613.59;;;-3.51;66.65
51313;BME280;37397;53.226;10.400;2022-12-18T03:50:39;102606.41;;;-3.52;66.67
51313;BME280;37397;53.226;10.400;2022-12-18T03:53:24;102596.88;;;-3.51;66.60
51313;BME280;37397;53.226;10.400;2022-12-18T03:55:55;102612.00;;;-3.52;66.57
51313;BME280;37397;53.226;10.400;2022-12-18T03:58:28;102623.16;;;-3.52;67.05
51313;BME280;37397;53.226;10.400;2022-12-18T04:01:07;102622.66;;;-3.54;66.38
51313;BME280;37397;53.226;10.400;2022-12-18T04:03:37;102620.69;;;-3.54;66.63
51313;BME280;37397;53.226;10.400;2022-12-18T04:06:06;102623.84;;;-3.55;66.53
51313;BME280;37397;53.226;10.400;2022-12-18T04:08:34;102619.41;;;-3.56;66.67
51313;BME280;37397;53.226;10.400;2022-12-18T04:11:05;102624.16;;;-3.57;66.88
51313;BME280;37397;53.226;10.400;2022-12-18T04:13:36;102628.09;;;-3.58;66.86
51313;BME280;37397;53.226;10.400;2022-12-18T04:16:09;102621.25;;;-3.60;66.20
51313;BME280;37397;53.226;10.400;2022-12-18T04:18:39;102628.44;;;-3.59;66.27
51313;BME280;37397;53.226;10.400;2022-12-18T04:21:07;102626.81;;;-3.60;66.64
51313;BME280;37397;53.226;10.400;2022-12-18T04:23:33;102621.09;;;-3.64;66.48
51313;BME280;37397;53.226;10.400;2022-12-18T04:26:01;102624.38;;;-3.62;66.34
51313;BME280;37397;53.226;10.400;2022-12-18T04:28:41;102625.84;;;-3.64;66.08
51313;BME280;37397;53.226;10.400;2022-12-18T04:31:08;102614.09;;;-3.70;66.33
51313;BME280;37397;53.226;10.400;2022-12-18T04:33:35;102624.22;;;-3.66;66.43
51313;BME280;37397;53.226;10.400;2022-12-18T04:36:02;102611.31;;;-3.70;66.83
51313;BME280;37397;53.226;10.400;2022-12-18T04:38:29;102618.16;;;-3.68;66.53
51313;BME280;37397;53.226;10.400;2022-12-18T04:41:02;102623.94;;;-3.73;66.16
51313;BME280;37397;53.226;10.400;2022-12-18T04:43:29;102622.31;;;-3.74;66.38
51313;BME280;37397;53.226;10.400;2022-12-18T04:46:03;102619.84;;;-3.75;66.65
51313;BME280;37397;53.226;10.400;2022-12-18T04:48:30;102623.47;;;-3.75;66.70
51313;BME280;37397;53.226;10.400;2022-12-18T04:50:57;102617.06;;;-3.75;66.56
51313;BME280;37397;53.226;10.400;2022-12-18T04:53:23;102613.47;;;-3.76;66.72
51313;BME280;37397;53.226;10.400;2022-12-18T04:55:50;102611.81;;;-3.77;66.41
51313;BME280;37397;53.226;10.400;2022-12-18T04:58:16;102606.22;;;-3.77;65.97
51313;BME280;37397;53.226;10.400;2022-12-18T05:00:43;102595.41;;;-3.78;66.82
51313;BME280;37397;53.226;10.400;2022-12-18T05:03:09;102589.69;;;-3.82;66.44
51313;BME280;37397;53.226;10.400;2022-12-18T05:05:35;102599.72;;;-3.81;66.55
51313;BME280;37397;53.226;10.400;2022-12-18T05:08:02;102603.66;;;-3.82;66.79
51313;BME280;37397;53.226;10.400;2022-12-18T05:10:28;102609.22;;;-3.82;66.39
51313;BME280;37397;53.226;10.400;2022-12-18T05:13:03;102610.75;;;-3.85;66.45
51313;BME280;37397;53.226;10.400;2022-12-18T05:15:31;102616.31;;;-3.85;66.56
51313;BME280;37397;53.226;10.400;2022-12-18T05:17:58;102619.91;;;-3.84;66.46
51313;BME280;37397;53.226;10.400;2022-12-18T05:20:26;102621.06;;;-3.85;66.12
51313;BME280;37397;53.226;10.400;2022-12-18T05:22:55;102617.78;;;-3.87;66.17
51313;BME280;37397;53.226;10.400;2022-12-18T05:25:22;102627.81;;;-3.86;66.32
51313;BME280;37397;53.226;10.400;2022-12-18T05:27:48;102625.69;;;-3.89;66.13
51313;BME280;37397;53.226;10.400;2022-12-18T05:30:16;102636.84;;;-3.89;66.54
51313;BME280;37397;53.226;10.400;2022-12-18T05:32:43;102637.66;;;-3.89;66.42
51313;BME280;37397;53.226;10.400;2022-12-18T05:35:10;102646.84;;;-3.88;66.34
51313;BME280;37397;53.226;10.400;2022-12-18T05:37:37;102639.63;;;-3.89;66.56
51313;BME280;37397;53.226;10.400;2022-12-18T05:40:09;102657.50;;;-3.90;66.48
51313;BME280;37397;53.226;10.400;2022-12-18T05:42:36;102658.19;;;-3.93;66.21
51313;BME280;37397;53.226;10.400;2022-12-18T05:45:04;102664.94;;;-3.94;66.31
51313;BME280;37397;53.226;10.400;2022-12-18T05:47:30;102665.41;;;-3.92;66.61
51313;BME280;37397;53.226;10.400;2022-12-18T05:49:57;102662.16;;;-3.94;66.25
51313;BME280;37397;53.226;10.400;2022-12-18T05:52:23;102678.03;;;-3.95;66.08
51313;BME280;37397;53.226;10.400;2022-12-18T05:54:50;102670.84;;;-3.96;66.33
51313;BME280;37397;53.226;10.400;2022-12-18T05:57:17;102681.16;;;-3.96;66.19
51313;BME280;37397;53.226;10.400;2022-12-18T05:59:43;102678.38;;;-3.96;66.08
51313;BME280;37397;53.226;10.400;2022-12-18T06:02:10;102668.22;;;-4.01;66.33
51313;BME280;37397;53.226;10.400;2022-12-18T06:04:37;102677.09;;;-3.99;66.13
51313;BME280;37397;53.226;10.400;2022-12-18T06:07:03;102673.47;;;-3.99;66.30
51313;BME280;37397;53.226;10.400;2022-12-18T06:09:30;102667.41;;;-4.01;66.05
51313;BME280;37397;53.226;10.400;2022-12-18T06:11:56;102670.53;;;-4.03;66.11
51313;BME280;37397;53.226;10.400;2022-12-18T06:14:23;102664.81;;;-4.07;66.33
51313;BME280;37397;53.226;10.400;2022-12-18T06:16:50;102659.25;;;-4.07;66.06
51313;BME280;37397;53.226;10.400;2022-12-18T06:19:17;102660.72;;;-4.09;66.40
51313;BME280;37397;53.226;10.400;2022-12-18T06:21:44;102662.22;;;-4.12;66.10
51313;BME280;37397;53.226;10.400;2022-12-18T06:24:10;102669.41;;;-4.11;66.11
51313;BME280;37397;53.226;10.400;2022-12-18T06:26:38;102670.59;;;-4.12;66.19
51313;BME280;37397;53.226;10.400;2022-12-18T06:29:05;102668.47;;;-4.15;65.99
51313;BME280;37397;53.226;10.400;2022-12-18T06:31:32;102680.44;;;-4.14;65.97
51313;BME280;37397;53.226;10.400;2022-12-18T06:33:59;102685.19;;;-4.15;65.66
51313;BME280;37397;53.226;10.400;2022-12-18T06:36:26;102693.06;;;-4.17;65.89
51313;BME280;37397;53.226;10.400;2022-12-18T06:38:54;102689.31;;;-4.21;66.08
51313;BME280;37397;53.226;10.400;2022-12-18T06:41:21;102686.19;;;-4.19;66.06
51313;BME280;37397;53.226;10.400;2022-12-18T06:43:48;102686.53;;;-4.21;66.34
51313;BME280;37397;53.226;10.400;2022-12-18T06:46:15;102689.78;;;-4.19;66.32
51313;BME280;37397;53.226;10.400;2022-12-18T06:48:41;102689.78;;;-4.19;66.36
51313;BME280;37397;53.226;10.400;2022-12-18T06:51:08;102697.66;;;-4.21;66.20
51313;BME280;37397;53.226;10.400;2022-12-18T06:53:34;102694.88;;;-4.21;66.27
51313;BME280;37397;53.226;10.400;2022-12-18T06:56:05;102702.44;;;-4.22;66.19
51313;BME280;37397;53.226;10.400;2022-12-18T06:58:36;102712.75;;;-4.22;66.27
51313;BME280;37397;53.226;10.400;2022-12-18T07:01:04;102725.88;;;-4.23;66.31
51313;BME280;37397;53.226;10.400;2022-12-18T07:03:31;102722.63;;;-4.25;66.24
51313;BME280;37397;53.226;10.400;2022-12-18T07:05:58;102730.13;;;-4.25;66.17
51313;BME280;37397;53.226;10.400;2022-12-18T07:08:24;102731.31;;;-4.26;66.11
51313;BME280;37397;53.226;10.400;2022-12-18T07:10:51;102720.50;;;-4.28;66.02
51313;BME280;37397;53.226;10.400;2022-12-18T07:13:21;102714.06;;;-4.28;66.17
51313;BME280;37397;53.226;10.400;2022-12-18T07:15:48;102716.84;;;-4.28;66.25
51313;BME280;37397;53.226;10.400;2022-12-18T07:18:14;102710.00;;;-4.31;66.15
51313;BME280;37397;53.226;10.400;2022-12-18T07:20:41;102713.13;;;-4.32;66.22
51313;BME280;37397;53.226;10.400;2022-12-18T07:23:07;102710.81;;;-4.30;65.95
51313;BME280;37397;53.226;10.400;2022-12-18T07:25:35;102716.72;;;-4.32;65.76
51313;BME280;37397;53.226;10.400;2022-12-18T07:28:01;102717.03;;;-4.33;66.04
51313;BME280;37397;53.226;10.400;2022-12-18T07:30:28;102725.72;;;-4.35;66.30
51313;BME280;37397;53.226;10.400;2022-12-18T07:32:55;102736.06;;;-4.35;66.30
51313;BME280;37397;53.226;10.400;2022-12-18T07:35:21;102733.28;;;-4.35;65.89
51313;BME280;37397;53.226;10.400;2022-12-18T07:37:50;102725.59;;;-4.38;65.94
51313;BME280;37397;53.226;10.400;2022-12-18T07:40:17;102747.06;;;-4.39;66.03
51313;BME280;37397;53.226;10.400;2022-12-18T07:42:43;102755.75;;;-4.41;65.86
51313;BME280;37397;53.226;10.400;2022-12-18T07:45:10;102747.56;;;-4.46;65.87
51313;BME280;37397;53.226;10.400;2022-12-18T07:47:37;102754.78;;;-4.45;65.52
51313;BME280;37397;53.226;10.400;2022-12-18T07:50:04;102754.78;;;-4.45;65.89
51313;BME280;37397;53.226;10.400;2022-12-18T07:52:31;102749.53;;;-4.46;65.94
51313;BME280;37397;53.226;10.400;2022-12-18T07:54:58;102745.13;;;-4.47;65.84
51313;BME280;37397;53.226;10.400;2022-12-18T07:57:24;102749.03;;;-4.48;65.72
51313;BME280;37397;53.226;10.400;2022-12-18T08:00:11;102742.66;;;-4.49;65.99
51313;BME280;37397;53.226;10.400;2022-12-18T08:02:38;102742.66;;;-4.49;65.89
51313;BME280;37397;53.226;10.400;2022-12-18T08:05:05;102744.59;;;-4.49;65.65
51313;BME280;37397;53.226;10.400;2022-12-18T08:07:32;102748.91;;;-4.52;66.11
51313;BME280;37397;53.226;10.400;2022-12-18T08:09:58;102747.72;;;-4.51;66.10
51313;BME280;37397;53.226;10.400;2022-12-18T08:12:25;102752.50;;;-4.51;66.20
51313;BME280;37397;53.226;10.400;2022-12-18T08:14:51;102753.28;;;-4.51;66.20
51313;BME280;37397;53.226;10.400;2022-12-18T08:17:19;102749.69;;;-4.51;66.26
51313;BME280;37397;53.226;10.400;2022-12-18T08:19:46;102742.84;;;-4.54;66.04
51313;BME280;37397;53.226;10.400;2022-12-18T08:22:12;102741.66;;;-4.53;66.10
51313;BME280;37397;53.226;10.400;2022-12-18T08:24:39;102720.19;;;-4.52;66.01
51313;BME280;37397;53.226;10.400;2022-12-18T08:27:05;102719.38;;;-4.53;66.08
51313;BME280;37397;53.226;10.400;2022-12-18T08:29:52;102709.72;;;-4.55;65.64
51313;BME280;37397;53.226;10.400;2022-12-18T08:32:18;102705.63;;;-4.58;65.91
51313;BME280;37397;53.226;10.400;2022-12-18T08:34:45;102701.72;;;-4.57;66.08
51313;BME280;37397;53.226;10.400;2022-12-18T08:37:12;102703.31;;;-4.56;66.08
51313;BME280;37397;53.226;10.400;2022-12-18T08:39:38;102707.28;;;-4.57;65.95
51313;BME280;37397;53.226;10.400;2022-12-18T08:42:05;102696.78;;;-4.60;65.70
51313;BME280;37397;53.226;10.400;2022-12-18T08:44:50;102691.22;;;-4.60;65.94
51313;BME280;37397;53.226;10.400;2022-12-18T08:47:16;102696.78;;;-4.60;66.36
51313;BME280;37397;53.226;10.400;2022-12-18T08:49:43;102695.16;;;-4.61;65.96
51313;BME280;37397;53.226;10.400;2022-12-18T08:52:09;102687.25;;;-4.59;66.19
51313;BME280;37397;53.226;10.400;2022-12-18T08:54:35;102699.25;;;-4.59;66.33
51313;BME280;37397;53.226;10.400;2022-12-18T08:57:02;102700.88;;;-4.58;66.11
51313;BME280;37397;53.226;10.400;2022-12-18T08:59:28;102703.66;;;-4.58;66.42
51313;BME280;37397;53.226;10.400;2022-12-18T09:01:55;102700.53;;;-4.56;66.42
51313;BME280;37397;53.226;10.400;2022-12-18T09:04:22;102711.69;;;-4.56;66.34
51313;BME280;37397;53.226;10.400;2022-12-18T09:06:48;102707.75;;;-4.55;66.42
51313;BME280;37397;53.226;10.400;2022-12-18T09:09:15;102719.38;;;-4.53;66.46
51313;BME280;37397;53.226;10.400;2022-12-18T09:11:41;102714.63;;;-4.52;66.68
51313;BME280;37397;53.226;10.400;2022-12-18T09:14:09;102709.88;;;-4.52;66.57
51313;BME280;37397;53.226;10.400;2022-12-18T09:16:35;102714.28;;;-4.51;66.66
51313;BME280;37397;53.226;10.400;2022-12-18T09:19:03;102711.16;;;-4.49;66.71
51313;BME280;37397;53.226;10.400;2022-12-18T09:21:32;102718.72;;;-4.50;66.31
51313;BME280;37397;53.226;10.400;2022-12-18T09:24:03;102715.28;;;-4.47;66.28
51313;BME280;37397;53.226;10.400;2022-12-18T09:26:32;102716.41;;;-4.48;66.60
51313;BME280;37397;53.226;10.400;2022-12-18T09:28:58;102713.31;;;-4.46;66.51
51313;BME280;37397;53.226;10.400;2022-12-18T09:31:25;102711.34;;;-4.46;66.32
51313;BME280;37397;53.226;10.400;2022-12-18T09:33:51;102711.34;;;-4.46;66.67
51313;BME280;37397;53.226;10.400;2022-12-18T09:36:18;102710.19;;;-4.45;66.31
51313;BME280;37397;53.226;10.400;2022-12-18T09:38:45;102713.16;;;-4.41;66.48
51313;BME280;37397;53.226;10.400;2022-12-18T09:41:32;102711.03;;;-4.44;66.63
51313;BME280;37397;53.226;10.400;2022-12-18T09:44:03;102712.78;;;-4.40;66.52
51313;BME280;37397;53.226;10.400;2022-12-18T09:46:37;102719.19;;;-4.39;66.63
51313;BME280;37397;53.226;10.400;2022-12-18T09:49:12;102710.50;;;-4.37;66.50
51313;BME280;37397;53.226;10.400;2022-12-18T09:51:45;102709.00;;;-4.35;66.57
51313;BME280;37397;53.226;10.400;2022-12-18T09:54:21;102723.47;;;-4.33;66.56
51313;BME280;37397;53.226;10.400;2022-12-18T09:56:49;102717.03;;;-4.33;66.61
51313;BME280;37397;53.226;10.400;2022-12-18T09:59:29;102723.13;;;-4.31;66.71
51313;BME280;37397;53.226;10.400;2022-12-18T10:01:57;102731.50;;;-4.31;66.74
51313;BME280;37397;53.226;10.400;2022-12-18T10:04:30;102732.44;;;-4.27;66.84
51313;BME280;37397;53.226;10.400;2022-12-18T10:07:04;102724.88;;;-4.27;66.54
51313;BME280;37397;53.226;10.400;2022-12-18T10:09:47;102720.97;;;-4.26;66.99
51313;BME280;37397;53.226;10.400;2022-12-18T10:12:23;102722.75;;;-4.21;66.83
51313;BME280;37397;53.226;10.400;2022-12-18T10:14:58;102725.53;;;-4.21;67.06
51313;BME280;37397;53.226;10.400;2022-12-18T10:17:43;102731.59;;;-4.19;67.04
51313;BME280;37397;53.226;10.400;2022-12-18T10:23:03;102725.19;;;-4.11;67.55
51313;BME280;37397;53.226;10.400;2022-12-18T10:25:57;102722.91;;;-4.09;68.13
51313;BME280;37397;53.226;10.400;2022-12-18T10:28:30;102719.09;;;-4.04;68.17
51313;BME280;37397;53.226;10.400;2022-12-18T10:30:57;102715.47;;;-4.05;67.63
51313;BME280;37397;53.226;10.400;2022-12-18T10:33:29;102717.13;;;-4.04;67.74
51313;BME280;37397;53.226;10.400;2022-12-18T10:35:56;102723.66;;;-3.99;68.03
51313;BME280;37397;53.226;10.400;2022-12-18T10:38:30;102727.28;;;-3.99;67.99
51313;BME280;37397;53.226;10.400;2022-12-18T10:41:06;102735.31;;;-3.97;68.36
51313;BME280;37397;53.226;10.400;2022-12-18T10:44:12;102737.94;;;-3.92;68.47
51313;BME280;37397;53.226;10.400;2022-12-18T10:46:38;102731.69;;;-3.89;68.74
51313;BME280;37397;53.226;10.400;2022-12-18T10:49:05;102734.94;;;-3.87;68.57
51313;BME280;37397;53.226;10.400;2022-12-18T10:51:44;102737.53;;;-3.82;68.57
51313;BME280;37397;53.226;10.400;2022-12-18T10:54:21;102723.72;;;-3.78;68.73
51313;BME280;37397;53.226;10.400;2022-12-18T10:56:48;102719.94;;;-3.74;69.00
51313;BME280;37397;53.226;10.400;2022-12-18T10:59:17;102713.22;;;-3.73;69.00
51313;BME280;37397;53.226;10.400;2022-12-18T11:01:52;102717.13;;;-3.65;69.10
51313;BME280;37397;53.226;10.400;2022-12-18T11:04:23;102714.94;;;-3.59;69.21
51313;BME280;37397;53.226;10.400;2022-12-18T11:07:08;102711.00;;;-3.58;68.90
51313;BME280;37397;53.226;10.400;2022-12-18T11:09:37;102710.81;;;-3.53;68.28
51313;BME280;37397;53.226;10.400;2022-12-18T11:12:13;102698.97;;;-3.50;68.07
51313;BME280;37397;53.226;10.400;2022-12-18T11:14:52;102702.75;;;-3.46;68.45
51313;BME280;37397;53.226;10.400;2022-12-18T11:17:22;102704.84;;;-3.43;68.22
51313;BME280;37397;53.226;10.400;2022-12-18T11:20:23;102719.28;;;-3.41;68.03
51313;BME280;37397;53.226;10.400;2022-12-18T11:22:57;102714.66;;;-3.37;67.93
51313;BME280;37397;53.226;10.400;2022-12-18T11:25:24;102707.91;;;-3.36;67.61
51313;BME280;37397;53.226;10.400;2022-12-18T11:28:27;102704.44;;;-3.33;67.97
51313;BME280;37397;53.226;10.400;2022-12-18T11:33:54;102692.13;;;-3.32;68.02
51313;BME280;37397;53.226;10.400;2022-12-18T11:36:45;102699.81;;;-3.28;67.61
51313;BME280;37397;53.226;10.400;2022-12-18T11:39:18;102700.78;;;-3.24;67.56
51313;BME280;37397;53.226;10.400;2022-12-18T11:41:56;102679.25;;;-3.24;67.84
51313;BME280;37397;53.226;10.400;2022-12-18T11:44:50;102678.56;;;-3.21;67.68
51313;BME280;37397;53.226;10.400;2022-12-18T11:47:40;102672.19;;;-3.21;67.89
51313;BME280;37397;53.226;10.400;2022-12-18T11:50:20;102683.47;;;-3.18;67.84
51313;BME280;37397;53.226;10.400;2022-12-18T11:52:48;102673.28;;;-3.14;67.30
51313;BME280;37397;53.226;10.400;2022-12-18T11:55:43;102682.94;;;-3.11;67.49
51313;BME280;37397;53.226;10.400;2022-12-18T11:58:28;102687.84;;;-3.08;67.34
51313;BME280;37397;53.226;10.400;2022-12-18T12:01:11;102683.91;;;-3.07;67.77
51313;BME280;37397;53.226;10.400;2022-12-18T12:04:19;102683.91;;;-3.07;68.05
51313;BME280;37397;53.226;10.400;2022-12-18T12:07:01;102679.25;;;-3.03;67.67
51313;BME280;37397;53.226;10.400;2022-12-18T12:10:01;102675.31;;;-3.02;67.79
51313;BME280;37397;53.226;10.400;2022-12-18T12:12:55;102660.19;;;-3.01;67.55
51313;BME280;37397;53.226;10.400;2022-12-18T12:18:46;102656.72;;;-2.98;67.37
51313;BME280;37397;53.226;10.400;2022-12-18T12:21:40;102643.22;;;-2.96;67.31
51313;BME280;37397;53.226;10.400;2022-12-18T12:29:40;102629.50;;;-2.88;67.73
51313;BME280;37397;53.226;10.400;2022-12-18T12:40:19;102623.84;;;-2.80;67.59
51313;BME280;37397;53.226;10.400;2022-12-18T12:43:22;102614.63;;;-2.80;67.37
51313;BME280;37397;53.226;10.400;2022-12-18T12:46:10;102612.31;;;-2.78;67.32
51313;BME280;37397;53.226;10.400;2022-12-18T12:51:25;102593.69;;;-2.74;67.45
51313;BME280;37397;53.226;10.400;2022-12-18T12:53:54;102584.16;;;-2.73;66.99
51313;BME280;37397;53.226;10.400;2022-12-18T12:56:25;102577.88;;;-2.70;67.44
51313;BME280;37397;53.226;10.400;2022-12-18T12:59:15;102571.81;;;-2.72;67.41
51313;BME280;37397;53.226;10.400;2022-12-18T13:01:59;102557.97;;;-2.68;67.55
51313;BME280;37397;53.226;10.400;2022-12-18T13:04:55;102557.63;;;-2.67;67.10
51313;BME280;37397;53.226;10.400;2022-12-18T13:07:41;102553.66;;;-2.66;67.63
51313;BME280;37397;53.226;10.400;2022-12-18T13:13:07;102541.78;;;-2.63;66.94
51313;BME280;37397;53.226;10.400;2022-12-18T13:20:37;102553.56;;;-2.57;67.33
51313;BME280;37397;53.226;10.400;2022-12-18T13:25:53;102560.41;;;-2.54;66.94
51313;BME280;37397;53.226;10.400;2022-12-18T13:31:07;102560.91;;;-2.52;67.62
51313;BME280;37397;53.226;10.400;2022-12-18T13:33:46;102544.13;;;-2.52;67.27
51313;BME280;37397;53.226;10.400;2022-12-18T13:36:33;102557.75;;;-2.51;67.30
51313;BME280;37397;53.226;10.400;2022-12-18T13:39:24;102570.19;;;-2.48;67.34
51313;BME280;37397;53.226;10.400;2022-12-18T13:44:34;102558.34;;;-2.45;67.01
51313;BME280;37397;53.226;10.400;2022-12-18T13:47:25;102550.19;;;-2.50;67.00
51313;BME280;37397;53.226;10.400;2022-12-18T13:49:52;102538.53;;;-2.52;67.39
51313;BME280;37397;53.226;10.400;2022-12-18T13:52:22;102541.09;;;-2.47;66.99
51313;BME280;37397;53.226;10.400;2022-12-18T13:54:53;102547.84;;;-2.48;67.14
51313;BME280;37397;53.226;10.400;2022-12-18T13:57:36;102551.59;;;-2.44;66.84
51313;BME280;37397;53.226;10.400;2022-12-18T14:00:24;102550.41;;;-2.43;66.91